M I D A S
Marine Information and Data Acquisition System
Tripno 1504 of the Zeeleeuw from 2008-06-16 07:05:14 to 2008-06-16 11:18:40
Back to CruiseResearch ActivitiesStationsMapUnderway DataData graphs

EquipmentUnitsComments
TimeDGPSUTC
LatitudeDGPSDM.mWGS84
LongitudeDGPSDM.mWGS84
SpeedMeteo Stationm/sRelative wind speed
DirectionMeteo StationdegRelative wind direction
TemperatureMeteo Stationdeg CelciusAir temperature
PressureMeteo StationPaAtmospheric pressure
HumidityMeteo Station%Relative humidity
Missing or incorrect values are displayed as -999
Metereological data collected by the RV Zeeleeuw from 2008-06-16 07:05:52 to 2008-06-16 11:28:09
                                                                                    Next 1000 lines
Time Latitude Longitude Speed Direction Temperature Pressure Humidity
2008-06-16 07:06:02 51°13.623 2°56.047 1.2 283 13.8 101090 64
2008-06-16 07:06:07 51°13.623 2°56.048 1 337 13.9 101090 64
2008-06-16 07:06:12 51°13.623 2°56.048 1.1 283 13.9 101090 64
2008-06-16 07:06:17 51°13.624 2°56.048 1.6 346 13.9 101090 64
2008-06-16 07:06:22 51°13.624 2°56.048 2 280 13.9 101090 64
2008-06-16 07:06:27 51°13.624 2°56.048 2.4 345 13.9 101090 64
2008-06-16 07:06:32 51°13.624 2°56.048 2.7 278 13.9 101090 64
2008-06-16 07:06:37 51°13.623 2°56.048 2.2 345 13.9 101090 64
2008-06-16 07:06:42 51°13.623 2°56.048 2.3 284 13.9 101090 64
2008-06-16 07:06:47 51°13.623 2°56.048 2.3 342 13.9 101090 64
2008-06-16 07:06:52 51°13.623 2°56.048 2.2 285 13.9 101090 64
2008-06-16 07:06:57 51°13.623 2°56.048 2.4 344 13.9 101090 64
2008-06-16 07:07:02 51°13.623 2°56.048 2.2 283 13.9 101090 64
2008-06-16 07:07:07 51°13.623 2°56.048 2.1 338 13.9 101090 64
2008-06-16 07:07:12 51°13.623 2°56.048 2.3 280 13.9 101090 64
2008-06-16 07:07:17 51°13.623 2°56.048 2.2 336 13.9 101090 64
2008-06-16 07:07:22 51°13.623 2°56.048 2.2 281 13.9 101090 64
2008-06-16 07:07:27 51°13.623 2°56.047 1.8 341 13.9 101090 64
2008-06-16 07:07:32 51°13.623 2°56.045 1.8 283 13.9 101090 64
2008-06-16 07:07:37 51°13.624 2°56.043 1.5 338 13.9 101090 64
2008-06-16 07:07:42 51°13.625 2°56.039 1.2 281 13.9 101090 64
2008-06-16 07:07:47 51°13.626 2°56.035 1 351 13.9 101090 64
2008-06-16 07:07:52 51°13.628 2°56.031 0.7 279 13.9 101100 65
2008-06-16 07:07:57 51°13.63 2°56.025 0.7 350 13.9 101100 65
2008-06-16 07:08:02 51°13.632 2°56.02 0.7 280 13.8 101090 65
2008-06-16 07:08:07 51°13.634 2°56.013 0.6 350 13.8 101100 65
2008-06-16 07:08:12 51°13.636 2°56.006 0.6 358 13.8 101100 65
2008-06-16 07:08:17 51°13.638 2°55.999 0.6 -999 13.8 101100 65
2008-06-16 07:08:22 51°13.641 2°55.991 0.6 2 13.9 101100 65
2008-06-16 07:08:27 51°13.643 2°55.983 0.5 4 13.8 101090 66
2008-06-16 07:08:32 51°13.645 2°55.974 0.5 12 13.8 101090 66
2008-06-16 07:08:37 51°13.647 2°55.965 0.5 13 13.8 101090 66
2008-06-16 07:08:42 51°13.649 2°55.956 0.6 16 13.9 101090 66
2008-06-16 07:08:47 51°13.65 2°55.947 0.6 20 13.9 101090 66
2008-06-16 07:08:52 51°13.652 2°55.937 0.9 25 13.9 101090 65
2008-06-16 07:08:57 51°13.655 2°55.927 0.7 25 13.9 101090 65
2008-06-16 07:09:02 51°13.658 2°55.916 0.8 32 13.9 101090 65
2008-06-16 07:09:07 51°13.66 2°55.906 1.1 32 13.9 101090 65
2008-06-16 07:09:12 51°13.663 2°55.896 0.8 27 13.9 101090 65
2008-06-16 07:09:17 51°13.665 2°55.886 0.8 21 13.9 101090 65
2008-06-16 07:09:22 51°13.667 2°55.877 0.9 15 13.9 101100 65
2008-06-16 07:09:27 51°13.67 2°55.867 0.7 15 13.9 101100 65
2008-06-16 07:09:32 51°13.672 2°55.858 0.8 15 13.9 101100 66
2008-06-16 07:09:37 51°13.674 2°55.849 0.7 15 13.9 101100 66
2008-06-16 07:09:42 51°13.675 2°55.841 0.8 7 13.9 101090 66
2008-06-16 07:09:47 51°13.677 2°55.833 0.9 6 13.9 101090 66
2008-06-16 07:09:52 51°13.678 2°55.825 1 6 13.9 101090 66
2008-06-16 07:09:57 51°13.68 2°55.817 0.9 5 13.9 101090 66
2008-06-16 07:10:02 51°13.681 2°55.81 0.8 6 13.9 101090 66
2008-06-16 07:10:07 51°13.682 2°55.803 0.8 2 13.9 101090 66
2008-06-16 07:10:11 51°13.683 2°55.798 0.7 2 13.9 101090 66
2008-06-16 07:10:16 51°13.684 2°55.792 0.7 2 13.9 101090 66
2008-06-16 07:10:22 51°13.684 2°55.785 0.9 2 13.9 101090 66
2008-06-16 07:10:26 51°13.685 2°55.781 0.8 1 13.8 101100 65
2008-06-16 07:10:31 51°13.686 2°55.776 0.8 5 13.8 101100 65
2008-06-16 07:10:36 51°13.686 2°55.772 0.8 3 13.8 101100 65
2008-06-16 07:10:40 51°13.686 2°55.769 1.1 354 13.8 101090 65
2008-06-16 07:10:46 51°13.687 2°55.765 1.2 353 13.8 101090 65
2008-06-16 07:10:50 51°13.687 2°55.763 1.2 353 13.8 101090 65
2008-06-16 07:10:55 51°13.688 2°55.761 1.4 349 13.8 101090 65
2008-06-16 07:11:00 51°13.688 2°55.759 1.4 280 13.8 101090 65
2008-06-16 07:11:05 51°13.689 2°55.759 2 348 13.8 101090 65
2008-06-16 07:11:10 51°13.69 2°55.759 2.1 349 13.8 101090 65
2008-06-16 07:11:15 51°13.691 2°55.76 2.5 346 13.8 101090 65
2008-06-16 07:11:19 51°13.692 2°55.761 2.6 352 13.8 101090 65
2008-06-16 07:11:24 51°13.693 2°55.764 2.4 351 13.8 101090 65
2008-06-16 07:11:27 51°13.694 2°55.765 2.6 354 13.8 101090 65
2008-06-16 07:11:34 51°13.697 2°55.768 2.5 354 13.8 101090 65
2008-06-16 07:11:39 51°13.698 2°55.769 2.1 15 13.7 101090 65
2008-06-16 07:11:43 51°13.699 2°55.769 2.5 10 13.7 101090 65
2008-06-16 07:11:48 51°13.699 2°55.769 2.6 18 13.7 101090 65
2008-06-16 07:11:54 51°13.699 2°55.768 2.4 28 13.7 101090 65
2008-06-16 07:11:58 51°13.698 2°55.767 2.5 32 13.7 101090 65
2008-06-16 07:12:03 51°13.697 2°55.766 2.2 33 13.7 101090 65
2008-06-16 07:12:08 51°13.695 2°55.764 2.1 33 13.6 101090 66
2008-06-16 07:12:14 51°13.694 2°55.763 2 34 13.6 101090 66
2008-06-16 07:12:19 51°13.693 2°55.762 1.7 32 13.6 101100 66
2008-06-16 07:12:25 51°13.693 2°55.761 1.7 35 13.6 101100 66
2008-06-16 07:12:30 51°13.694 2°55.76 1.4 33 13.6 101090 66
2008-06-16 07:12:36 51°13.696 2°55.759 1.2 29 13.6 101090 66
2008-06-16 07:12:42 51°13.699 2°55.755 1 23 13.6 101090 66
2008-06-16 07:12:47 51°13.703 2°55.752 1 13 13.6 101090 66
2008-06-16 07:12:52 51°13.709 2°55.748 1.1 2 13.5 101090 66
2008-06-16 07:12:57 51°13.715 2°55.743 1 355 13.5 101090 66
2008-06-16 07:13:02 51°13.722 2°55.737 1.4 277 13.5 101100 66
2008-06-16 07:13:06 51°13.727 2°55.731 1.5 345 13.5 101100 66
2008-06-16 07:13:11 51°13.735 2°55.724 1.9 276 13.5 101100 66
2008-06-16 07:13:16 51°13.743 2°55.716 2 340 13.5 101100 66
2008-06-16 07:13:21 51°13.752 2°55.708 2.4 284 13.5 101090 66
2008-06-16 07:13:26 51°13.761 2°55.699 2.2 337 13.5 101090 66
2008-06-16 07:13:31 51°13.77 2°55.691 2.3 279 13.5 101090 66
2008-06-16 07:13:36 51°13.779 2°55.682 2.1 336 13.5 101090 66
2008-06-16 07:13:40 51°13.787 2°55.676 2.4 280 13.5 101090 66
2008-06-16 07:13:45 51°13.797 2°55.667 2.2 335 13.5 101090 66
2008-06-16 07:13:50 51°13.807 2°55.659 2.2 284 13.4 101100 66
2008-06-16 07:13:55 51°13.817 2°55.65 2.3 337 13.4 101100 66
2008-06-16 07:14:00 51°13.827 2°55.643 1.8 283 13.4 101100 66
2008-06-16 07:14:05 51°13.838 2°55.634 1.6 334 13.4 101100 66
2008-06-16 07:14:10 51°13.848 2°55.626 1.6 281 13.4 101100 67
2008-06-16 07:14:14 51°13.857 2°55.619 1.8 339 13.4 101100 67
2008-06-16 07:14:19 51°13.867 2°55.611 1.8 282 13.4 101100 67
2008-06-16 07:14:24 51°13.878 2°55.602 2 329 13.4 101100 67
2008-06-16 07:14:29 51°13.889 2°55.593 1.6 281 13.4 101100 67
2008-06-16 07:14:34 51°13.9 2°55.585 1.7 328 13.4 101100 67
2008-06-16 07:14:38 51°13.908 2°55.578 1.7 284 13.4 101100 67
2008-06-16 07:14:43 51°13.919 2°55.569 1.9 329 13.4 101100 67
2008-06-16 07:14:48 51°13.93 2°55.56 2 286 13.4 101100 67
2008-06-16 07:14:53 51°13.941 2°55.551 2.3 330 13.4 101100 67
2008-06-16 07:14:58 51°13.952 2°55.543 3.1 285 13.4 101100 67
2008-06-16 07:15:03 51°13.963 2°55.534 3.1 326 13.4 101100 67
2008-06-16 07:15:08 51°13.974 2°55.525 3.1 284 13.4 101100 67
2008-06-16 07:15:14 51°13.987 2°55.515 3.1 328 13.4 101100 67
2008-06-16 07:15:18 51°13.996 2°55.508 2.6 286 13.4 101100 67
2008-06-16 07:15:23 51°14.007 2°55.5 3.1 329 13.4 101100 67
2008-06-16 07:15:28 51°14.018 2°55.491 2.8 281 13.4 101090 67
2008-06-16 07:15:33 51°14.028 2°55.483 2.8 324 13.4 101090 67
2008-06-16 07:15:38 51°14.04 2°55.475 2.9 278 13.4 101090 67
2008-06-16 07:15:43 51°14.05 2°55.466 2.7 328 13.4 101090 67
2008-06-16 07:15:48 51°14.061 2°55.457 2.6 285 13.4 101100 67
2008-06-16 07:15:54 51°14.074 2°55.447 2.2 326 13.4 101100 67
2008-06-16 07:15:58 51°14.083 2°55.44 2.4 280 13.4 101100 66
2008-06-16 07:16:03 51°14.094 2°55.431 2 333 13.4 101100 66
2008-06-16 07:16:08 51°14.105 2°55.422 2.1 276 13.4 101090 66
2008-06-16 07:16:14 51°14.118 2°55.412 2 330 13.4 101090 66
2008-06-16 07:16:18 51°14.126 2°55.404 2.3 278 13.4 101090 66
2008-06-16 07:16:24 51°14.139 2°55.393 3 330 13.4 101090 66
2008-06-16 07:16:29 51°14.15 2°55.384 3.1 282 13.4 101100 66
2008-06-16 07:16:34 51°14.16 2°55.374 3.3 334 13.4 101100 66
2008-06-16 07:16:39 51°14.171 2°55.364 4.1 283 13.4 101090 66
2008-06-16 07:16:45 51°14.184 2°55.351 4.7 343 13.4 101090 66
2008-06-16 07:16:50 51°14.194 2°55.341 4.2 286 13.4 101100 66
2008-06-16 07:16:55 51°14.205 2°55.329 4.1 338 13.4 101100 66
2008-06-16 07:17:01 51°14.217 2°55.314 3.5 280 13.4 101090 66
2008-06-16 07:17:06 51°14.227 2°55.301 3.7 340 13.4 101090 66
2008-06-16 07:17:11 51°14.237 2°55.288 3.8 278 13.5 101090 66
2008-06-16 07:17:16 51°14.247 2°55.274 3.5 342 13.5 101090 66
2008-06-16 07:17:21 51°14.256 2°55.26 3.6 283 13.5 101090 67
2008-06-16 07:17:26 51°14.266 2°55.245 3.2 344 13.5 101090 67
2008-06-16 07:17:31 51°14.275 2°55.23 3.2 280 13.5 101090 66
2008-06-16 07:17:36 51°14.284 2°55.214 3.4 342 13.5 101090 66
2008-06-16 07:17:41 51°14.293 2°55.197 4.1 285 13.5 101090 65
2008-06-16 07:17:46 51°14.302 2°55.181 4 331 13.4 101090 65
2008-06-16 07:17:51 51°14.31 2°55.164 3.3 279 13.4 101090 65
2008-06-16 07:17:55 51°14.317 2°55.151 3.9 322 13.4 101090 65
2008-06-16 07:18:00 51°14.325 2°55.134 4.2 283 13.4 101090 64
2008-06-16 07:18:05 51°14.333 2°55.116 4.4 330 13.4 101090 64
2008-06-16 07:18:10 51°14.341 2°55.097 5.1 279 13.4 101090 65
2008-06-16 07:18:15 51°14.348 2°55.077 5.3 330 13.4 101090 65
2008-06-16 07:18:20 51°14.355 2°55.057 5.5 283 13.5 101090 66
2008-06-16 07:18:25 51°14.361 2°55.035 5.7 332 13.5 101090 66
2008-06-16 07:18:30 51°14.365 2°55.013 5.6 283 13.5 101090 67
2008-06-16 07:18:34 51°14.368 2°54.995 5.1 329 13.5 101090 67
2008-06-16 07:18:39 51°14.371 2°54.971 5.2 284 13.5 101090 67
2008-06-16 07:18:44 51°14.374 2°54.947 5.3 329 13.5 101090 67
2008-06-16 07:18:49 51°14.375 2°54.922 5.5 280 13.5 101090 67
2008-06-16 07:18:54 51°14.377 2°54.897 6.1 331 13.5 101090 67
2008-06-16 07:18:59 51°14.378 2°54.871 5.9 277 13.5 101090 67
2008-06-16 07:19:03 51°14.378 2°54.851 6.4 333 13.5 101090 67
2008-06-16 07:19:08 51°14.379 2°54.825 5.6 284 13.5 101090 66
2008-06-16 07:19:13 51°14.38 2°54.798 5.7 332 13.5 101090 66
2008-06-16 07:19:18 51°14.38 2°54.772 6.5 278 13.5 101090 66
2008-06-16 07:19:23 51°14.381 2°54.746 5.9 332 13.5 101090 66
2008-06-16 07:19:28 51°14.38 2°54.719 6.4 280 13.5 101090 66
2008-06-16 07:19:33 51°14.379 2°54.692 6.2 331 13.5 101090 66
2008-06-16 07:19:38 51°14.377 2°54.664 5.9 278 13.5 101090 65
2008-06-16 07:19:43 51°14.376 2°54.637 5.8 335 13.5 101090 65
2008-06-16 07:19:48 51°14.374 2°54.609 6 281 13.5 101090 65
2008-06-16 07:19:53 51°14.372 2°54.582 6.8 334 13.5 101090 65
2008-06-16 07:19:58 51°14.371 2°54.554 6.7 284 13.5 101090 65
2008-06-16 07:20:03 51°14.367 2°54.527 6.4 332 13.5 101090 65
2008-06-16 07:20:08 51°14.363 2°54.5 5.8 277 13.5 101090 65
2008-06-16 07:20:14 51°14.357 2°54.468 5.7 332 13.5 101090 65
2008-06-16 07:20:18 51°14.353 2°54.446 6.5 285 13.5 101100 65
2008-06-16 07:20:23 51°14.346 2°54.42 6.2 336 13.5 101100 65
2008-06-16 07:20:28 51°14.339 2°54.394 6.1 283 13.5 101090 65
2008-06-16 07:20:34 51°14.331 2°54.363 6.2 334 13.5 101090 65
2008-06-16 07:20:38 51°14.325 2°54.342 6.5 278 13.5 101090 65
2008-06-16 07:20:43 51°14.319 2°54.316 7 330 13.5 101090 65
2008-06-16 07:20:48 51°14.312 2°54.29 6.9 284 13.4 101090 65
2008-06-16 07:20:54 51°14.305 2°54.257 6.6 326 13.4 101090 65
2008-06-16 07:20:58 51°14.3 2°54.236 7.1 284 13.4 101090 65
2008-06-16 07:21:03 51°14.294 2°54.209 7.1 329 13.4 101090 65
2008-06-16 07:21:07 51°14.289 2°54.188 7.1 279 13.4 101090 65
2008-06-16 07:21:13 51°14.282 2°54.155 7.9 327 13.4 101090 65
2008-06-16 07:21:18 51°14.276 2°54.128 6.4 280 13.4 101090 65
2008-06-16 07:21:23 51°14.271 2°54.101 6 327 13.4 101090 65
2008-06-16 07:21:28 51°14.265 2°54.074 5.9 278 13.4 101090 65
2008-06-16 07:21:33 51°14.259 2°54.047 5.5 328 13.4 101090 65
2008-06-16 07:21:38 51°14.253 2°54.02 5.9 286 13.4 101090 65
2008-06-16 07:21:43 51°14.247 2°53.993 5.7 326 13.4 101090 65
2008-06-16 07:21:48 51°14.241 2°53.966 5.2 280 13.4 101090 65
2008-06-16 07:21:54 51°14.234 2°53.933 4.7 326 13.4 101090 65
2008-06-16 07:21:58 51°14.229 2°53.911 5.6 278 13.4 101100 65
2008-06-16 07:22:03 51°14.223 2°53.884 5.5 329 13.4 101100 65
2008-06-16 07:22:08 51°14.217 2°53.857 6 281 13.4 101090 64
2008-06-16 07:22:13 51°14.211 2°53.83 6.1 329 13.4 101090 64
2008-06-16 07:22:18 51°14.205 2°53.803 5.4 284 13.4 101090 64
2008-06-16 07:22:23 51°14.199 2°53.776 5.3 328 13.4 101100 64
2008-06-16 07:22:27 51°14.194 2°53.754 4.9 282 13.4 101100 64
2008-06-16 07:22:33 51°14.186 2°53.722 5.1 331 13.4 101100 64
2008-06-16 07:22:38 51°14.181 2°53.694 5.8 279 13.4 101090 64
2008-06-16 07:22:43 51°14.174 2°53.667 5.1 329 13.4 101090 64
2008-06-16 07:22:48 51°14.168 2°53.64 5.7 284 13.4 101100 64
2008-06-16 07:22:54 51°14.161 2°53.608 5.4 328 13.4 101100 64
2008-06-16 07:22:58 51°14.156 2°53.586 5.2 280 13.4 101100 64
2008-06-16 07:23:03 51°14.15 2°53.559 5.8 329 13.3 101090 64
2008-06-16 07:23:07 51°14.144 2°53.538 6 284 13.3 101090 64
2008-06-16 07:23:13 51°14.137 2°53.505 6.6 328 13.3 101090 64
2008-06-16 07:23:18 51°14.13 2°53.479 6.9 278 13.3 101090 64
2008-06-16 07:23:23 51°14.124 2°53.451 6.9 325 13.3 101090 64
2008-06-16 07:23:28 51°14.118 2°53.424 6.4 279 13.3 101090 64
2008-06-16 07:23:33 51°14.112 2°53.397 7.1 327 13.3 101090 64
2008-06-16 07:23:38 51°14.106 2°53.37 5.6 280 13.4 101090 65
2008-06-16 07:23:43 51°14.099 2°53.343 5.9 330 13.4 101090 65
2008-06-16 07:23:48 51°14.093 2°53.316 6.2 282 13.4 101090 65
2008-06-16 07:23:53 51°14.087 2°53.288 6.1 330 13.4 101090 65
2008-06-16 07:23:58 51°14.08 2°53.261 6.6 284 13.4 101090 66
2008-06-16 07:24:03 51°14.073 2°53.234 6.1 331 13.4 101090 66
2008-06-16 07:24:07 51°14.069 2°53.213 6.6 285 13.4 101090 66
2008-06-16 07:24:13 51°14.06 2°53.181 6.1 333 13.4 101090 66
2008-06-16 07:24:18 51°14.053 2°53.154 6.5 281 13.4 101090 66
2008-06-16 07:24:23 51°14.045 2°53.128 6.9 329 13.4 101090 66
2008-06-16 07:24:28 51°14.039 2°53.101 6.2 283 13.4 101090 66
2008-06-16 07:24:34 51°14.03 2°53.069 6.8 332 13.4 101090 66
2008-06-16 07:24:38 51°14.025 2°53.048 6.6 279 13.3 101090 66
2008-06-16 07:24:43 51°14.019 2°53.021 6.5 333 13.3 101090 66
2008-06-16 07:24:48 51°14.012 2°52.994 6.7 277 13.3 101090 66
2008-06-16 07:24:53 51°14.006 2°52.966 7.4 331 13.3 101090 66
2008-06-16 07:24:58 51°13.999 2°52.94 6.7 285 13.3 101090 66
2008-06-16 07:25:03 51°13.993 2°52.912 7.6 333 13.3 101090 66
2008-06-16 07:25:08 51°13.986 2°52.885 7 280 13.3 101090 67
2008-06-16 07:25:13 51°13.98 2°52.858 7.8 327 13.3 101090 67
2008-06-16 07:25:18 51°13.973 2°52.831 7.3 281 13.3 101090 67
2008-06-16 07:25:23 51°13.967 2°52.803 7.8 326 13.3 101090 67
2008-06-16 07:25:28 51°13.961 2°52.776 7 282 13.3 101090 67
2008-06-16 07:25:33 51°13.954 2°52.749 7.9 326 13.3 101090 68
2008-06-16 07:25:38 51°13.948 2°52.722 7 284 13.3 101090 68
2008-06-16 07:25:43 51°13.942 2°52.695 7.1 329 13.3 101090 68
2008-06-16 07:25:48 51°13.935 2°52.667 7.7 280 13.3 101090 67
2008-06-16 07:25:53 51°13.929 2°52.64 7.1 327 13.3 101090 67
2008-06-16 07:25:58 51°13.923 2°52.613 7.3 278 13.3 101090 67
2008-06-16 07:26:03 51°13.916 2°52.586 6.8 328 13.3 101090 67
2008-06-16 07:26:07 51°13.912 2°52.563 7.5 278 13.3 101090 67
2008-06-16 07:26:13 51°13.902 2°52.532 6.8 328 13.3 101090 67
2008-06-16 07:26:18 51°13.897 2°52.504 7.4 279 13.3 101090 67
2008-06-16 07:26:23 51°13.888 2°52.479 6.6 330 13.3 101090 67
2008-06-16 07:26:28 51°13.881 2°52.452 7.3 280 13.3 101100 67
2008-06-16 07:26:33 51°13.872 2°52.427 6.9 330 13.3 101100 67
2008-06-16 07:26:38 51°13.864 2°52.401 6.8 284 13.3 101090 67
2008-06-16 07:26:43 51°13.855 2°52.375 6.1 328 13.3 101090 67
2008-06-16 07:26:48 51°13.846 2°52.35 6.5 278 13.3 101090 67
2008-06-16 07:26:53 51°13.838 2°52.324 6.8 326 13.3 101090 67
2008-06-16 07:26:58 51°13.829 2°52.299 6.2 284 13.3 101090 67
2008-06-16 07:27:03 51°13.82 2°52.273 7.1 329 13.3 101090 67
2008-06-16 07:27:08 51°13.811 2°52.248 7.7 282 13.2 101080 67
2008-06-16 07:27:13 51°13.802 2°52.223 6.7 329 13.2 101080 67
2008-06-16 07:27:18 51°13.792 2°52.198 6.8 286 13.2 101090 67
2008-06-16 07:27:23 51°13.783 2°52.174 7.8 327 13.2 101090 67
2008-06-16 07:27:28 51°13.773 2°52.149 7.3 277 13.3 101090 67
2008-06-16 07:27:33 51°13.763 2°52.125 6.7 325 13.2 101090 67
2008-06-16 07:27:38 51°13.753 2°52.101 7.1 281 13.2 101090 67
2008-06-16 07:27:43 51°13.744 2°52.075 6.4 328 13.2 101090 67
2008-06-16 07:27:48 51°13.735 2°52.05 6.1 279 13.3 101090 67
2008-06-16 07:27:53 51°13.727 2°52.025 6.1 330 13.3 101090 67
2008-06-16 07:27:58 51°13.718 2°51.999 6.9 284 13.3 101090 68
2008-06-16 07:28:03 51°13.71 2°51.973 7.3 329 13.3 101090 68
2008-06-16 07:28:07 51°13.703 2°51.953 7.8 281 13.3 101090 68
2008-06-16 07:28:13 51°13.694 2°51.921 7.9 327 13.3 101090 68
2008-06-16 07:28:18 51°13.685 2°51.896 6.5 278 13.3 101100 68
2008-06-16 07:28:23 51°13.677 2°51.869 7.1 325 13.3 101100 68
2008-06-16 07:28:28 51°13.669 2°51.843 6.6 279 13.3 101090 68
2008-06-16 07:28:33 51°13.662 2°51.816 6.6 328 13.3 101090 68
2008-06-16 07:28:38 51°13.653 2°51.791 6.2 286 13.3 101090 68
2008-06-16 07:28:43 51°13.645 2°51.765 7.2 330 13.3 101090 68
2008-06-16 07:28:48 51°13.636 2°51.74 6.3 283 13.2 101090 68
2008-06-16 07:28:53 51°13.628 2°51.714 6.8 328 13.2 101090 68
2008-06-16 07:28:58 51°13.619 2°51.689 7.5 281 13.2 101080 68
2008-06-16 07:29:03 51°13.609 2°51.664 8.1 325 13.2 101090 68
2008-06-16 07:29:08 51°13.6 2°51.639 7.1 281 13.2 101090 68
2008-06-16 07:29:13 51°13.59 2°51.615 7.6 330 13.2 101090 68
2008-06-16 07:29:18 51°13.581 2°51.59 7.7 281 13.2 101090 68
2008-06-16 07:29:23 51°13.571 2°51.566 8.1 324 13.2 101090 68
2008-06-16 07:29:28 51°13.562 2°51.541 7.4 285 13.3 101100 69
2008-06-16 07:29:33 51°13.551 2°51.518 6.5 331 13.3 101100 69
2008-06-16 07:29:38 51°13.542 2°51.493 7.6 279 13.3 101100 69
2008-06-16 07:29:43 51°13.532 2°51.469 6.7 327 13.3 101100 69
2008-06-16 07:29:47 51°13.524 2°51.449 7.7 281 13.2 101100 68
2008-06-16 07:29:53 51°13.513 2°51.42 7.6 329 13.2 101100 68
2008-06-16 07:29:58 51°13.503 2°51.395 6.9 283 13.2 101090 68
2008-06-16 07:30:03 51°13.494 2°51.371 7.7 328 13.2 101090 68
2008-06-16 07:30:07 51°13.485 2°51.351 6.3 280 13.2 101090 69
2008-06-16 07:30:13 51°13.474 2°51.322 7.3 328 13.2 101090 69
2008-06-16 07:30:18 51°13.465 2°51.297 7.2 280 13.2 101090 69
2008-06-16 07:30:23 51°13.454 2°51.273 6.6 332 13.2 101090 69
2008-06-16 07:30:28 51°13.445 2°51.249 7 283 13.2 101090 68
2008-06-16 07:30:33 51°13.435 2°51.225 7.3 326 13.2 101090 68
2008-06-16 07:30:38 51°13.426 2°51.2 7.1 279 13.2 101090 68
2008-06-16 07:30:43 51°13.415 2°51.177 7.8 327 13.2 101090 68
2008-06-16 07:30:48 51°13.407 2°51.151 7.7 280 13.2 101090 68
2008-06-16 07:30:53 51°13.396 2°51.128 8.4 326 13.2 101090 68
2008-06-16 07:30:58 51°13.387 2°51.103 8.2 281 13.3 101090 68
2008-06-16 07:31:03 51°13.377 2°51.079 7.6 327 13.2 101100 69
2008-06-16 07:31:08 51°13.368 2°51.054 7.1 285 13.2 101100 69
2008-06-16 07:31:13 51°13.358 2°51.03 7.3 329 13.2 101100 69
2008-06-16 07:31:18 51°13.35 2°51.004 7.8 286 13.3 101100 68
2008-06-16 07:31:23 51°13.34 2°50.979 7.3 330 13.3 101100 68
2008-06-16 07:31:28 51°13.332 2°50.954 7.4 277 13.2 101090 68
2008-06-16 07:31:33 51°13.323 2°50.928 7 328 13.2 101090 68
2008-06-16 07:31:38 51°13.314 2°50.903 8.2 279 13.2 101090 68
2008-06-16 07:31:43 51°13.305 2°50.877 7.8 327 13.2 101090 68
2008-06-16 07:31:48 51°13.297 2°50.852 7.6 286 13.2 101090 69
2008-06-16 07:31:53 51°13.288 2°50.827 7.7 326 13.2 101090 69
2008-06-16 07:31:58 51°13.279 2°50.802 7.6 278 13.2 101080 68
2008-06-16 07:32:03 51°13.269 2°50.777 8.3 328 13.2 101080 68
2008-06-16 07:32:07 51°13.262 2°50.757 8 279 13.2 101090 69
2008-06-16 07:32:13 51°13.251 2°50.727 8 326 13.3 101080 69
2008-06-16 07:32:18 51°13.242 2°50.702 6.4 283 13.3 101080 69
2008-06-16 07:32:23 51°13.233 2°50.677 7.2 327 13.3 101080 69
2008-06-16 07:32:28 51°13.224 2°50.651 7.8 281 13.2 101090 69
2008-06-16 07:32:33 51°13.215 2°50.626 7.1 329 13.2 101090 69
2008-06-16 07:32:38 51°13.207 2°50.6 8 282 13.2 101090 68
2008-06-16 07:32:43 51°13.198 2°50.574 7.2 328 13.2 101090 68
2008-06-16 07:32:47 51°13.192 2°50.554 6.3 283 13.2 101100 68
2008-06-16 07:32:53 51°13.182 2°50.523 6.6 328 13.2 101100 68
2008-06-16 07:32:58 51°13.173 2°50.498 6.6 280 13.2 101100 68
2008-06-16 07:33:03 51°13.164 2°50.471 6.3 329 13.2 101090 68
2008-06-16 07:33:08 51°13.156 2°50.445 6.7 278 13.2 101090 68
2008-06-16 07:33:13 51°13.147 2°50.42 6.2 332 13.2 101090 68
2008-06-16 07:33:18 51°13.139 2°50.394 7.2 279 13.2 101090 67
2008-06-16 07:33:23 51°13.13 2°50.368 6.8 326 13.2 101090 67
2008-06-16 07:33:28 51°13.122 2°50.342 8.1 279 13.2 101090 68
2008-06-16 07:33:33 51°13.113 2°50.317 7.5 330 13.2 101090 68
2008-06-16 07:33:38 51°13.105 2°50.29 7.9 281 13.2 101090 68
2008-06-16 07:33:43 51°13.096 2°50.265 7.2 327 13.2 101090 68
2008-06-16 07:33:48 51°13.088 2°50.24 7.5 284 13.2 101090 68
2008-06-16 07:33:53 51°13.08 2°50.214 8.1 325 13.2 101090 68
2008-06-16 07:33:58 51°13.071 2°50.188 8 284 13.2 101100 69
2008-06-16 07:34:03 51°13.062 2°50.163 8.1 324 13.2 101100 69
2008-06-16 07:34:08 51°13.054 2°50.137 7.3 285 13.2 101090 69
2008-06-16 07:34:13 51°13.045 2°50.112 7.7 326 13.2 101090 69
2008-06-16 07:34:18 51°13.036 2°50.087 7.4 279 13.3 101080 69
2008-06-16 07:34:23 51°13.028 2°50.061 7.8 326 13.3 101080 69
2008-06-16 07:34:28 51°13.019 2°50.036 6.9 284 13.2 101090 69
2008-06-16 07:34:33 51°13.01 2°50.011 7.1 326 13.3 101090 70
2008-06-16 07:34:38 51°13.001 2°49.986 7.2 279 13.3 101090 70
2008-06-16 07:34:43 51°12.992 2°49.961 7.4 327 13.3 101090 70
2008-06-16 07:34:47 51°12.984 2°49.942 7 284 13.3 101090 69
2008-06-16 07:34:53 51°12.974 2°49.912 7.4 327 13.3 101090 69
2008-06-16 07:34:58 51°12.963 2°49.888 7.4 284 13.3 101090 69
2008-06-16 07:35:03 51°12.955 2°49.863 7.1 324 13.2 101090 69
2008-06-16 07:35:08 51°12.945 2°49.839 7.2 284 13.2 101090 69
2008-06-16 07:35:13 51°12.935 2°49.815 7.6 326 13.2 101090 69
2008-06-16 07:35:18 51°12.926 2°49.79 7.5 282 13.2 101090 69
2008-06-16 07:35:23 51°12.917 2°49.765 6.4 326 13.2 101090 69
2008-06-16 07:35:28 51°12.907 2°49.741 7 283 13.2 101090 69
2008-06-16 07:35:33 51°12.899 2°49.716 6 323 13.2 101090 69
2008-06-16 07:35:38 51°12.889 2°49.691 6.6 284 13.2 101100 70
2008-06-16 07:35:43 51°12.88 2°49.666 6.3 324 13.2 101080 69
2008-06-16 07:35:48 51°12.871 2°49.642 7.1 277 13.2 101080 69
2008-06-16 07:35:53 51°12.861 2°49.616 6.5 323 13.2 101080 69
2008-06-16 07:35:58 51°12.853 2°49.59 6.2 279 13.2 101090 69
2008-06-16 07:36:03 51°12.843 2°49.566 7.3 324 13.2 101090 69
2008-06-16 07:36:08 51°12.836 2°49.539 6.2 278 13.3 101090 69
2008-06-16 07:36:13 51°12.826 2°49.515 7.3 326 13.3 101090 69
2008-06-16 07:36:18 51°12.818 2°49.489 6.7 285 13.2 101100 69
2008-06-16 07:36:23 51°12.808 2°49.465 6 325 13.2 101100 69
2008-06-16 07:36:28 51°12.799 2°49.439 6 286 13.2 101100 69
2008-06-16 07:36:33 51°12.79 2°49.415 6.2 326 13.2 101100 69
2008-06-16 07:36:38 51°12.781 2°49.389 7.4 279 13.2 101090 69
2008-06-16 07:36:43 51°12.771 2°49.365 6.7 330 13.2 101090 69
2008-06-16 07:36:47 51°12.765 2°49.344 6.4 277 13.2 101100 69
2008-06-16 07:36:53 51°12.753 2°49.315 6.9 330 13.2 101100 69
2008-06-16 07:36:58 51°12.744 2°49.29 7.2 283 13.2 101090 69
2008-06-16 07:37:03 51°12.734 2°49.265 6.9 328 13.2 101090 69
2008-06-16 07:37:07 51°12.728 2°49.244 7.5 282 13.2 101090 69
2008-06-16 07:37:13 51°12.716 2°49.215 6.9 331 13.2 101090 69
2008-06-16 07:37:18 51°12.708 2°49.189 6.8 279 13.2 101090 69
2008-06-16 07:37:23 51°12.698 2°49.164 6.6 325 13.2 101090 69
2008-06-16 07:37:28 51°12.69 2°49.138 7 278 13.3 101090 69
2008-06-16 07:37:33 51°12.679 2°49.115 6.6 329 13.3 101090 69
2008-06-16 07:37:38 51°12.672 2°49.088 6.6 277 13.3 101090 69
2008-06-16 07:37:43 51°12.661 2°49.064 6.6 324 13.3 101090 69
2008-06-16 07:37:47 51°12.654 2°49.044 5.8 279 13.3 101090 69
2008-06-16 07:37:53 51°12.643 2°49.014 6 328 13.3 101090 69
2008-06-16 07:37:58 51°12.634 2°48.989 5.9 281 13.3 101100 69
2008-06-16 07:38:03 51°12.624 2°48.964 6.8 325 13.3 101100 69
2008-06-16 07:38:08 51°12.615 2°48.939 6.7 278 13.3 101090 69
2008-06-16 07:38:13 51°12.606 2°48.914 7.1 323 13.3 101090 69
2008-06-16 07:38:18 51°12.597 2°48.889 6.2 283 13.3 101090 69
2008-06-16 07:38:23 51°12.588 2°48.864 7.1 324 13.3 101090 69
2008-06-16 07:38:28 51°12.579 2°48.839 6.8 278 13.3 101090 69
2008-06-16 07:38:33 51°12.57 2°48.813 6.1 323 13.3 101090 69
2008-06-16 07:38:38 51°12.562 2°48.787 6.4 280 13.3 101090 69
2008-06-16 07:38:43 51°12.554 2°48.762 6 323 13.3 101090 69
2008-06-16 07:38:47 51°12.547 2°48.741 7 285 13.3 101080 69
2008-06-16 07:38:53 51°12.537 2°48.71 7.5 324 13.3 101080 69
2008-06-16 07:38:58 51°12.528 2°48.684 6.9 279 13.3 101090 69
2008-06-16 07:39:03 51°12.521 2°48.657 6 324 13.3 101090 69
2008-06-16 07:39:07 51°12.513 2°48.638 5.6 281 13.3 101090 68
2008-06-16 07:39:13 51°12.503 2°48.607 5.8 326 13.2 101090 68
2008-06-16 07:39:18 51°12.494 2°48.582 6.3 278 13.2 101090 68
2008-06-16 07:39:23 51°12.485 2°48.556 6.3 323 13.2 101090 68
2008-06-16 07:39:28 51°12.476 2°48.531 5.7 285 13.3 101090 68
2008-06-16 07:39:33 51°12.467 2°48.506 5.9 325 13.3 101090 68
2008-06-16 07:39:38 51°12.458 2°48.482 6.3 278 13.3 101090 68
2008-06-16 07:39:43 51°12.449 2°48.456 6.2 324 13.3 101090 68
2008-06-16 07:39:47 51°12.441 2°48.436 6.2 283 13.2 101090 68
2008-06-16 07:39:53 51°12.431 2°48.406 7.4 322 13.2 101090 68
2008-06-16 07:39:58 51°12.421 2°48.381 7.1 277 13.2 101080 67
2008-06-16 07:40:03 51°12.412 2°48.356 6.5 329 13.2 101080 67
2008-06-16 07:40:08 51°12.403 2°48.332 7 282 13.2 101090 68
2008-06-16 07:40:13 51°12.393 2°48.307 7.4 328 13.2 101090 68
2008-06-16 07:40:18 51°12.384 2°48.282 6.8 283 13.2 101090 68
2008-06-16 07:40:23 51°12.374 2°48.258 7.4 325 13.2 101090 68
2008-06-16 07:40:28 51°12.365 2°48.233 7 283 13.3 101090 68
2008-06-16 07:40:33 51°12.356 2°48.208 7 324 13.3 101090 68
2008-06-16 07:40:38 51°12.347 2°48.183 6.8 278 13.3 101090 68
2008-06-16 07:40:43 51°12.337 2°48.159 6 326 13.3 101090 68
2008-06-16 07:40:48 51°12.328 2°48.134 6.7 278 13.2 101080 68
2008-06-16 07:40:53 51°12.319 2°48.109 7.7 323 13.2 101080 68
2008-06-16 07:40:58 51°12.31 2°48.083 7.2 283 13.2 101090 68
2008-06-16 07:41:03 51°12.301 2°48.058 6.4 321 13.2 101090 68
2008-06-16 07:41:07 51°12.294 2°48.037 6.2 282 13.2 101090 68
2008-06-16 07:41:13 51°12.285 2°48.007 6.9 325 13.2 101090 68
2008-06-16 07:41:18 51°12.276 2°47.982 6.4 286 13.2 101090 68
2008-06-16 07:41:23 51°12.268 2°47.955 6.3 325 13.2 101090 68
2008-06-16 07:41:28 51°12.259 2°47.93 7.3 284 13.2 101090 68
2008-06-16 07:41:33 51°12.25 2°47.904 7.3 325 13.2 101090 68
2008-06-16 07:41:38 51°12.243 2°47.878 6.2 284 13.2 101080 68
2008-06-16 07:41:43 51°12.233 2°47.853 6.1 325 13.2 101080 68
2008-06-16 07:41:47 51°12.228 2°47.832 6.9 285 13.2 101090 68
2008-06-16 07:41:53 51°12.216 2°47.803 6.2 327 13.2 101090 68
2008-06-16 07:41:58 51°12.209 2°47.776 6.2 278 13.2 101090 68
2008-06-16 07:42:03 51°12.2 2°47.751 6.6 326 13.2 101090 68
2008-06-16 07:42:08 51°12.192 2°47.725 5.6 282 13.2 101090 67
2008-06-16 07:42:13 51°12.184 2°47.7 6 327 13.2 101090 67
2008-06-16 07:42:18 51°12.176 2°47.674 5.9 280 13.2 101090 67
2008-06-16 07:42:23 51°12.167 2°47.648 5.3 326 13.2 101090 67
2008-06-16 07:42:28 51°12.16 2°47.622 6.2 286 13.2 101090 67
2008-06-16 07:42:33 51°12.152 2°47.596 5.2 326 13.2 101090 67
2008-06-16 07:42:38 51°12.145 2°47.569 6 278 13.3 101090 67
2008-06-16 07:42:43 51°12.138 2°47.543 6.3 323 13.2 101090 67
2008-06-16 07:42:48 51°12.131 2°47.516 6.2 279 13.2 101090 67
2008-06-16 07:42:53 51°12.124 2°47.489 6.7 326 13.2 101090 67
2008-06-16 07:42:58 51°12.118 2°47.462 6.7 277 13.3 101100 67
2008-06-16 07:43:03 51°12.112 2°47.435 6 327 13.3 101100 67
2008-06-16 07:43:08 51°12.106 2°47.407 5.7 282 13.2 101090 68
2008-06-16 07:43:13 51°12.1 2°47.38 6 326 13.3 101090 67
2008-06-16 07:43:18 51°12.093 2°47.353 5.6 284 13.3 101090 67
2008-06-16 07:43:23 51°12.088 2°47.325 6.2 321 13.3 101090 67
2008-06-16 07:43:28 51°12.081 2°47.299 5.5 281 13.3 101090 67
2008-06-16 07:43:33 51°12.075 2°47.271 6.2 322 13.3 101090 67
2008-06-16 07:43:38 51°12.068 2°47.244 5.4 283 13.3 101090 67
2008-06-16 07:43:43 51°12.062 2°47.217 5.9 321 13.3 101090 67
2008-06-16 07:43:47 51°12.057 2°47.195 4.9 280 13.3 101080 67
2008-06-16 07:43:53 51°12.049 2°47.163 5.8 322 13.3 101090 67
2008-06-16 07:43:58 51°12.043 2°47.135 5.7 279 13.3 101090 67
2008-06-16 07:44:03 51°12.036 2°47.109 5.1 323 13.3 101090 67
2008-06-16 07:44:08 51°12.029 2°47.082 5.4 279 13.3 101090 67
2008-06-16 07:44:13 51°12.023 2°47.055 4.9 324 13.3 101090 67
2008-06-16 07:44:18 51°12.015 2°47.029 5.2 282 13.3 101100 67
2008-06-16 07:44:23 51°12.009 2°47.001 5.1 322 13.3 101100 67
2008-06-16 07:44:28 51°12.001 2°46.976 5.3 279 13.3 101090 67
2008-06-16 07:44:33 51°11.995 2°46.949 5.2 324 13.3 101090 67
2008-06-16 07:44:38 51°11.987 2°46.923 5 278 13.3 101090 67
2008-06-16 07:44:43 51°11.98 2°46.896 5.1 324 13.2 101090 67
2008-06-16 07:44:48 51°11.972 2°46.87 5.6 278 13.2 101090 67
2008-06-16 07:44:53 51°11.966 2°46.843 5.8 321 13.2 101090 67
2008-06-16 07:44:58 51°11.958 2°46.817 5.3 282 13.2 101080 67
2008-06-16 07:45:03 51°11.951 2°46.79 4.8 321 13.2 101080 67
2008-06-16 07:45:08 51°11.943 2°46.764 5.3 279 13.3 101090 67
2008-06-16 07:45:13 51°11.937 2°46.737 5.2 323 13.3 101090 67
2008-06-16 07:45:18 51°11.929 2°46.71 5.4 285 13.3 101090 67
2008-06-16 07:45:23 51°11.923 2°46.682 4.9 323 13.3 101090 67
2008-06-16 07:45:27 51°11.917 2°46.661 4.5 281 13.3 101090 67
2008-06-16 07:45:33 51°11.91 2°46.629 4.5 325 13.3 101090 67
2008-06-16 07:45:38 51°11.903 2°46.601 5.2 282 13.3 101090 67
2008-06-16 07:45:43 51°11.897 2°46.574 4.5 323 13.3 101090 67
2008-06-16 07:45:47 51°11.891 2°46.553 4.6 279 13.3 101090 67
2008-06-16 07:45:53 51°11.883 2°46.521 5 322 13.3 101090 67
2008-06-16 07:45:58 51°11.875 2°46.494 4.8 278 13.3 101090 66
2008-06-16 07:46:03 51°11.868 2°46.468 4.8 324 13.3 101090 66
2008-06-16 07:46:08 51°11.861 2°46.442 4.9 282 13.3 101090 66
2008-06-16 07:46:13 51°11.853 2°46.415 5.1 329 13.3 101090 66
2008-06-16 07:46:18 51°11.846 2°46.389 4.9 -999 13.3 101090 67
2008-06-16 07:46:23 51°11.838 2°46.363 4.3 326 13.3 101090 67
2008-06-16 07:46:28 51°11.831 2°46.337 4.6 284 13.3 101080 67
2008-06-16 07:46:33 51°11.824 2°46.31 5.6 323 13.3 101080 67
2008-06-16 07:46:38 51°11.817 2°46.283 4.5 278 13.3 101090 67
2008-06-16 07:46:43 51°11.81 2°46.257 4.4 323 13.3 101090 67
2008-06-16 07:46:48 51°11.803 2°46.23 5.1 280 13.3 101090 67
2008-06-16 07:46:53 51°11.796 2°46.204 4.3 321 13.3 101090 67
2008-06-16 07:46:58 51°11.789 2°46.177 5.1 283 13.3 101090 67
2008-06-16 07:47:03 51°11.783 2°46.15 4.8 319 13.3 101090 67
2008-06-16 07:47:08 51°11.775 2°46.124 4.8 278 13.3 101090 67
2008-06-16 07:47:13 51°11.769 2°46.097 6 321 13.3 101090 67
2008-06-16 07:47:18 51°11.761 2°46.07 4.7 318 13.3 101090 67
2008-06-16 07:47:23 51°11.755 2°46.043 4.8 323 13.3 101090 67
2008-06-16 07:47:28 51°11.748 2°46.017 4.6 284 13.3 101090 67
2008-06-16 07:47:33 51°11.741 2°45.99 5.4 321 13.3 101090 67
2008-06-16 07:47:38 51°11.734 2°45.963 4 284 13.3 101090 67
2008-06-16 07:47:43 51°11.728 2°45.936 4.8 318 13.3 101090 67
2008-06-16 07:47:48 51°11.721 2°45.91 4.5 282 13.3 101080 67
2008-06-16 07:47:53 51°11.714 2°45.883 4.1 322 13.3 101080 67
2008-06-16 07:47:58 51°11.707 2°45.856 6 285 13.3 101090 67
2008-06-16 07:48:03 51°11.701 2°45.829 5.7 320 13.3 101090 67
2008-06-16 07:48:08 51°11.693 2°45.803 5.1 279 13.3 101080 67
2008-06-16 07:48:13 51°11.687 2°45.776 5.7 317 13.3 101090 67
2008-06-16 07:48:18 51°11.68 2°45.749 5 -999 13.3 101090 67
2008-06-16 07:48:23 51°11.673 2°45.722 5.9 317 13.3 101090 67
2008-06-16 07:48:27 51°11.668 2°45.701 5.9 282 13.4 101080 67
2008-06-16 07:48:33 51°11.66 2°45.669 4.8 316 13.4 101080 67
2008-06-16 07:48:38 51°11.653 2°45.642 5.6 280 13.3 101090 67
2008-06-16 07:48:43 51°11.647 2°45.615 5.2 319 13.3 101090 67
2008-06-16 07:48:48 51°11.639 2°45.589 4.7 280 13.3 101090 67
2008-06-16 07:48:53 51°11.634 2°45.562 5.5 321 13.3 101090 67
2008-06-16 07:48:58 51°11.627 2°45.536 4.9 279 13.3 101080 67
2008-06-16 07:49:03 51°11.62 2°45.508 4.7 325 13.3 101080 67
2008-06-16 07:49:08 51°11.614 2°45.481 6.2 277 13.3 101090 67
2008-06-16 07:49:13 51°11.608 2°45.454 5.3 318 13.3 101090 67
2008-06-16 07:49:18 51°11.601 2°45.428 5.9 316 13.3 101090 66
2008-06-16 07:49:23 51°11.596 2°45.4 5.3 319 13.3 101090 66
2008-06-16 07:49:28 51°11.589 2°45.373 5.3 284 13.3 101090 66
2008-06-16 07:49:33 51°11.584 2°45.346 4.6 320 13.3 101090 66
2008-06-16 07:49:38 51°11.578 2°45.319 4.9 282 13.3 101080 66
2008-06-16 07:49:43 51°11.573 2°45.291 4.7 317 13.3 101090 66
2008-06-16 07:49:48 51°11.567 2°45.264 4.6 279 13.3 101090 66
2008-06-16 07:49:53 51°11.562 2°45.236 4.9 323 13.3 101090 66
2008-06-16 07:49:58 51°11.556 2°45.209 4.4 280 13.3 101090 66
2008-06-16 07:50:03 51°11.551 2°45.181 4 320 13.3 101090 66
2008-06-16 07:50:08 51°11.546 2°45.154 5.5 278 13.3 101090 66
2008-06-16 07:50:13 51°11.541 2°45.126 5.1 320 13.4 101090 66
2008-06-16 07:50:18 51°11.535 2°45.099 4.6 318 13.4 101090 66
2008-06-16 07:50:23 51°11.53 2°45.071 5.1 323 13.4 101090 66
2008-06-16 07:50:27 51°11.526 2°45.049 5.6 279 13.3 101090 66
2008-06-16 07:50:33 51°11.519 2°45.016 5.5 325 13.3 101090 66
2008-06-16 07:50:38 51°11.513 2°44.989 5.7 285 13.3 101090 66
2008-06-16 07:50:43 51°11.507 2°44.962 5.4 326 13.4 101090 66
2008-06-16 07:50:47 51°11.502 2°44.94 4.9 277 13.4 101090 66
2008-06-16 07:50:53 51°11.495 2°44.908 4.6 327 13.4 101090 66
2008-06-16 07:50:58 51°11.487 2°44.882 4.9 279 13.4 101090 66
2008-06-16 07:51:03 51°11.482 2°44.854 4.7 324 13.4 101090 66
2008-06-16 07:51:08 51°11.475 2°44.827 5.3 280 13.4 101090 66
2008-06-16 07:51:13 51°11.469 2°44.8 6.1 325 13.4 101090 66
2008-06-16 07:51:18 51°11.464 2°44.773 5.6 -999 13.4 101090 66
2008-06-16 07:51:23 51°11.457 2°44.746 6.4 326 13.4 101090 66
2008-06-16 07:51:27 51°11.453 2°44.724 5.7 282 13.4 101090 66
2008-06-16 07:51:33 51°11.446 2°44.691 6.3 325 13.4 101090 66
2008-06-16 07:51:38 51°11.44 2°44.664 6.2 282 13.3 101090 66
2008-06-16 07:51:43 51°11.435 2°44.636 6.3 320 13.4 101090 67
2008-06-16 07:51:48 51°11.43 2°44.609 5.6 279 13.4 101090 67
2008-06-16 07:51:53 51°11.424 2°44.582 5.8 324 13.4 101090 67
2008-06-16 07:51:58 51°11.419 2°44.554 4.7 285 13.4 101090 67
2008-06-16 07:52:03 51°11.413 2°44.527 4.9 325 13.4 101090 67
2008-06-16 07:52:08 51°11.408 2°44.499 5.4 285 13.4 101090 67
2008-06-16 07:52:13 51°11.403 2°44.471 4.4 324 13.4 101090 67
2008-06-16 07:52:18 51°11.397 2°44.444 4.5 323 13.4 101090 67
2008-06-16 07:52:23 51°11.391 2°44.417 4.9 325 13.4 101090 67
2008-06-16 07:52:28 51°11.386 2°44.389 5.9 284 13.4 101090 67
2008-06-16 07:52:33 51°11.38 2°44.362 4.6 319 13.4 101090 67
2008-06-16 07:52:38 51°11.375 2°44.335 4.3 280 13.3 101090 66
2008-06-16 07:52:43 51°11.369 2°44.308 5.3 319 13.3 101090 66
2008-06-16 07:52:47 51°11.364 2°44.286 4.5 284 13.3 101090 67
2008-06-16 07:52:53 51°11.358 2°44.253 5.4 326 13.3 101090 67
2008-06-16 07:52:58 51°11.352 2°44.226 5 279 13.3 101090 67
2008-06-16 07:53:03 51°11.346 2°44.199 4.9 329 13.3 101090 67
2008-06-16 07:53:08 51°11.341 2°44.171 4.8 286 13.3 101090 67
2008-06-16 07:53:13 51°11.334 2°44.144 4.7 322 13.3 101100 67
2008-06-16 07:53:18 51°11.329 2°44.117 4.6 280 13.3 101100 67
2008-06-16 07:53:23 51°11.323 2°44.089 5 324 13.3 101100 67
2008-06-16 07:53:28 51°11.318 2°44.062 4.5 285 13.3 101100 67
2008-06-16 07:53:33 51°11.311 2°44.036 4.8 330 13.3 101100 67
2008-06-16 07:53:38 51°11.306 2°44.008 4.8 277 13.3 101100 67
2008-06-16 07:53:43 51°11.3 2°43.98 4.7 329 13.4 101090 68
2008-06-16 07:53:48 51°11.293 2°43.954 4.4 278 13.4 101090 68
2008-06-16 07:53:53 51°11.287 2°43.927 4.9 326 13.4 101100 68
2008-06-16 07:53:58 51°11.28 2°43.901 4.3 278 13.4 101100 68
2008-06-16 07:54:03 51°11.274 2°43.873 4.6 329 13.3 101090 67
2008-06-16 07:54:08 51°11.268 2°43.847 4.4 283 13.3 101090 67
2008-06-16 07:54:13 51°11.262 2°43.82 4.3 332 13.3 101100 67
2008-06-16 07:54:18 51°11.256 2°43.792 4.6 279 13.3 101100 67
2008-06-16 07:54:23 51°11.251 2°43.764 4.5 333 13.3 101090 66
2008-06-16 07:54:28 51°11.245 2°43.737 4 278 13.3 101090 66
2008-06-16 07:54:33 51°11.24 2°43.71 4.3 332 13.4 101100 67
2008-06-16 07:54:38 51°11.235 2°43.682 4.2 284 13.4 101100 67
2008-06-16 07:54:42 51°11.23 2°43.66 4 335 13.3 101100 66
2008-06-16 07:54:48 51°11.224 2°43.628 4.2 278 13.3 101100 66
2008-06-16 07:54:53 51°11.218 2°43.6 4.7 333 13.4 101100 67
2008-06-16 07:54:58 51°11.213 2°43.572 4.4 280 13.4 101100 67
2008-06-16 07:55:03 51°11.208 2°43.545 5.1 334 13.4 101100 67
2008-06-16 07:55:08 51°11.204 2°43.517 5 284 13.4 101100 67
2008-06-16 07:55:13 51°11.199 2°43.489 5.1 333 13.4 101100 67
2008-06-16 07:55:18 51°11.194 2°43.462 5.2 279 13.4 101100 67
2008-06-16 07:55:23 51°11.19 2°43.434 5.7 329 13.4 101100 67
2008-06-16 07:55:28 51°11.186 2°43.406 5.5 278 13.4 101100 67
2008-06-16 07:55:33 51°11.181 2°43.379 6.1 326 13.4 101100 68
2008-06-16 07:55:38 51°11.177 2°43.351 5.5 280 13.4 101100 68
2008-06-16 07:55:43 51°11.172 2°43.323 5.3 326 13.4 101100 68
2008-06-16 07:55:48 51°11.168 2°43.295 5.4 279 13.4 101100 68
2008-06-16 07:55:53 51°11.163 2°43.268 5.3 327 13.4 101100 67
2008-06-16 07:55:58 51°11.159 2°43.24 5.5 278 13.4 101100 67
2008-06-16 07:56:03 51°11.154 2°43.212 4.7 328 13.4 101100 66
2008-06-16 07:56:08 51°11.15 2°43.184 4.7 282 13.4 101100 66
2008-06-16 07:56:13 51°11.145 2°43.157 4.5 329 13.4 101100 66
2008-06-16 07:56:18 51°11.141 2°43.129 4.7 279 13.4 101100 66
2008-06-16 07:56:23 51°11.136 2°43.102 5 329 13.4 101110 65
2008-06-16 07:56:28 51°11.132 2°43.074 5.1 284 13.4 101110 65
2008-06-16 07:56:33 51°11.127 2°43.046 5 327 13.4 101100 65
2008-06-16 07:56:38 51°11.123 2°43.019 5 283 13.4 101100 65
2008-06-16 07:56:42 51°11.119 2°42.996 4.8 327 13.4 101100 65
2008-06-16 07:56:48 51°11.114 2°42.964 4.9 284 13.4 101100 65
2008-06-16 07:56:53 51°11.109 2°42.936 5.2 327 13.4 101100 65
2008-06-16 07:56:58 51°11.104 2°42.908 4.9 278 13.4 101100 65
2008-06-16 07:57:03 51°11.1 2°42.88 5.2 326 13.4 101100 66
2008-06-16 07:57:08 51°11.095 2°42.853 4.7 276 13.4 101100 66
2008-06-16 07:57:13 51°11.091 2°42.826 4.4 328 13.4 101110 66
2008-06-16 07:57:18 51°11.086 2°42.798 4.6 277 13.4 101110 66
2008-06-16 07:57:23 51°11.081 2°42.77 4.2 326 13.5 101110 66
2008-06-16 07:57:28 51°11.076 2°42.743 4.6 283 13.5 101110 66
2008-06-16 07:57:33 51°11.07 2°42.716 4.8 330 13.5 101100 66
2008-06-16 07:57:38 51°11.065 2°42.688 5.1 279 13.5 101100 66
2008-06-16 07:57:43 51°11.06 2°42.661 5.3 332 13.5 101110 66
2008-06-16 07:57:48 51°11.054 2°42.634 5.1 278 13.5 101110 66
2008-06-16 07:57:53 51°11.049 2°42.607 5.4 329 13.5 101110 66
2008-06-16 07:57:58 51°11.043 2°42.58 5.2 277 13.5 101110 66
2008-06-16 07:58:03 51°11.038 2°42.552 5.5 330 13.5 101110 66
2008-06-16 07:58:08 51°11.033 2°42.525 5.3 279 13.5 101110 66
2008-06-16 07:58:13 51°11.027 2°42.498 4.6 328 13.5 101100 66
2008-06-16 07:58:18 51°11.022 2°42.471 4.4 278 13.5 101100 66
2008-06-16 07:58:23 51°11.016 2°42.444 5.1 328 13.5 101110 66
2008-06-16 07:58:28 51°11.011 2°42.416 4.3 277 13.5 101110 66
2008-06-16 07:58:33 51°11.005 2°42.39 4.3 328 13.5 101100 66
2008-06-16 07:58:38 51°11 2°42.363 4.2 279 13.5 101100 66
2008-06-16 07:58:43 51°10.994 2°42.335 4.4 331 13.5 101100 65
2008-06-16 07:58:48 51°10.989 2°42.308 4.4 279 13.5 101100 65
2008-06-16 07:58:53 51°10.982 2°42.282 4.5 329 13.5 101110 65
2008-06-16 07:58:58 51°10.976 2°42.255 4.3 284 13.5 101110 65
2008-06-16 07:59:03 51°10.969 2°42.229 3.8 329 13.5 101110 65
2008-06-16 07:59:08 51°10.963 2°42.202 4.1 279 13.5 101110 65
2008-06-16 07:59:13 51°10.957 2°42.175 3.9 331 13.5 101110 64
2008-06-16 07:59:18 51°10.95 2°42.15 4.2 285 13.5 101110 64
2008-06-16 07:59:23 51°10.944 2°42.123 4 334 13.5 101100 64
2008-06-16 07:59:28 51°10.938 2°42.096 4.6 279 13.5 101100 64
2008-06-16 07:59:33 51°10.932 2°42.069 4.6 333 13.5 101100 64
2008-06-16 07:59:38 51°10.926 2°42.043 4.2 283 13.5 101100 64
2008-06-16 07:59:43 51°10.92 2°42.017 4.3 334 13.5 101110 64
2008-06-16 07:59:48 51°10.913 2°41.99 4.9 279 13.5 101110 64
2008-06-16 07:59:53 51°10.908 2°41.963 5.6 331 13.5 101100 64
2008-06-16 07:59:58 51°10.902 2°41.937 5 284 13.5 101100 64
2008-06-16 08:00:03 51°10.897 2°41.91 4.8 336 13.5 101110 64
2008-06-16 08:00:08 51°10.891 2°41.883 4.1 285 13.5 101110 64
2008-06-16 08:00:13 51°10.885 2°41.856 4.8 332 13.5 101100 65
2008-06-16 08:00:18 51°10.88 2°41.829 5.3 285 13.5 101100 65
2008-06-16 08:00:23 51°10.875 2°41.802 5 330 13.6 101100 66
2008-06-16 08:00:28 51°10.869 2°41.775 4.4 284 13.6 101100 66
2008-06-16 08:00:33 51°10.864 2°41.749 5.3 333 13.6 101110 66
2008-06-16 08:00:38 51°10.859 2°41.721 5.6 278 13.6 101110 66
2008-06-16 08:00:43 51°10.853 2°41.695 5 333 13.6 101100 65
2008-06-16 08:00:48 51°10.848 2°41.668 5.1 278 13.6 101100 65
2008-06-16 08:00:53 51°10.843 2°41.641 4.9 335 13.6 101110 65
2008-06-16 08:00:58 51°10.837 2°41.614 4.6 282 13.6 101110 65
2008-06-16 08:01:03 51°10.833 2°41.587 4.7 332 13.6 101100 65
2008-06-16 08:01:08 51°10.828 2°41.56 4.4 279 13.6 101100 65
2008-06-16 08:01:13 51°10.822 2°41.533 4.4 332 13.6 101100 65
2008-06-16 08:01:18 51°10.818 2°41.506 4.1 279 13.6 101100 65
2008-06-16 08:01:23 51°10.813 2°41.478 4.6 336 13.6 101100 65
2008-06-16 08:01:28 51°10.809 2°41.451 4.2 280 13.6 101100 65
2008-06-16 08:01:33 51°10.803 2°41.424 4 338 13.6 101110 65
2008-06-16 08:01:38 51°10.8 2°41.397 4.2 284 13.6 101110 65
2008-06-16 08:01:43 51°10.794 2°41.37 4.1 337 13.6 101110 65
2008-06-16 08:01:48 51°10.79 2°41.342 3.7 277 13.6 101110 65
2008-06-16 08:01:53 51°10.785 2°41.315 3.7 335 13.6 101110 65
2008-06-16 08:01:58 51°10.78 2°41.289 3.5 279 13.6 101110 65
2008-06-16 08:02:03 51°10.775 2°41.262 3.5 332 13.6 101110 65
2008-06-16 08:02:08 51°10.77 2°41.235 3.8 283 13.6 101110 65
2008-06-16 08:02:13 51°10.765 2°41.207 4.2 329 13.6 101100 65
2008-06-16 08:02:18 51°10.76 2°41.181 4.1 286 13.6 101100 65
2008-06-16 08:02:23 51°10.756 2°41.153 4.2 328 13.6 101110 65
2008-06-16 08:02:28 51°10.751 2°41.126 4.2 280 13.6 101110 65
2008-06-16 08:02:33 51°10.747 2°41.099 4.1 327 13.6 101110 66
2008-06-16 08:02:38 51°10.742 2°41.071 4.7 282 13.6 101110 66
2008-06-16 08:02:43 51°10.738 2°41.044 4.8 329 13.6 101110 66
2008-06-16 08:02:48 51°10.734 2°41.017 4.8 280 13.6 101110 66
2008-06-16 08:02:53 51°10.729 2°40.989 4.5 331 13.6 101100 66
2008-06-16 08:02:58 51°10.725 2°40.962 3.9 284 13.6 101100 66
2008-06-16 08:03:03 51°10.721 2°40.935 4.1 329 13.6 101110 66
2008-06-16 08:03:08 51°10.717 2°40.907 3.7 284 13.6 101110 66
2008-06-16 08:03:13 51°10.712 2°40.88 3.4 329 13.7 101100 66
2008-06-16 08:03:18 51°10.708 2°40.853 3.5 279 13.7 101100 66
2008-06-16 08:03:23 51°10.704 2°40.825 3.9 327 13.7 101100 66
2008-06-16 08:03:28 51°10.699 2°40.798 4 279 13.7 101100 66
2008-06-16 08:03:33 51°10.695 2°40.771 4.5 330 13.7 101110 65
2008-06-16 08:03:38 51°10.69 2°40.744 4.5 278 13.7 101110 65
2008-06-16 08:03:42 51°10.686 2°40.723 4.3 332 13.7 101100 65
2008-06-16 08:03:48 51°10.679 2°40.691 4.4 284 13.7 101100 65
2008-06-16 08:03:53 51°10.674 2°40.664 3.7 332 13.7 101100 65
2008-06-16 08:03:58 51°10.669 2°40.638 3.8 285 13.7 101100 65
2008-06-16 08:04:03 51°10.663 2°40.611 4.1 333 13.7 101100 65
2008-06-16 08:04:08 51°10.658 2°40.584 4.3 283 13.7 101100 65
2008-06-16 08:04:13 51°10.652 2°40.558 4.4 340 13.7 101100 64
2008-06-16 08:04:18 51°10.647 2°40.531 4 279 13.7 101100 64
2008-06-16 08:04:23 51°10.642 2°40.505 4.7 333 13.7 101100 64
2008-06-16 08:04:28 51°10.637 2°40.478 4.8 280 13.7 101100 64
2008-06-16 08:04:33 51°10.632 2°40.451 4.2 333 13.7 101100 64
2008-06-16 08:04:38 51°10.627 2°40.424 4 285 13.7 101100 64
2008-06-16 08:04:43 51°10.624 2°40.397 4 333 13.7 101100 63
2008-06-16 08:04:48 51°10.619 2°40.37 3.9 280 13.7 101100 63
2008-06-16 08:04:53 51°10.615 2°40.343 3.9 333 13.7 101100 63
2008-06-16 08:04:58 51°10.61 2°40.316 3.4 281 13.7 101100 63
2008-06-16 08:05:03 51°10.606 2°40.29 4 333 13.7 101110 63
2008-06-16 08:05:08 51°10.601 2°40.263 4 279 13.7 101110 63
2008-06-16 08:05:13 51°10.598 2°40.236 4 325 13.7 101100 63
2008-06-16 08:05:18 51°10.593 2°40.209 4.2 285 13.7 101100 63
2008-06-16 08:05:23 51°10.589 2°40.182 3.8 331 13.7 101100 62
2008-06-16 08:05:28 51°10.585 2°40.155 4.1 278 13.7 101100 62
2008-06-16 08:05:33 51°10.581 2°40.128 4.6 331 13.7 101100 63
2008-06-16 08:05:38 51°10.576 2°40.101 4.2 285 13.7 101100 63
2008-06-16 08:05:43 51°10.571 2°40.074 4.4 338 13.7 101100 63
2008-06-16 08:05:48 51°10.567 2°40.048 5.2 278 13.7 101100 63
2008-06-16 08:05:53 51°10.561 2°40.021 4.8 333 13.7 101100 63
2008-06-16 08:05:58 51°10.556 2°39.995 5.2 284 13.7 101100 63
2008-06-16 08:06:03 51°10.551 2°39.968 5.7 331 13.7 101100 64
2008-06-16 08:06:08 51°10.546 2°39.942 5.7 281 13.7 101100 64
2008-06-16 08:06:13 51°10.541 2°39.915 5.3 334 13.8 101100 64
2008-06-16 08:06:18 51°10.536 2°39.889 5 278 13.8 101100 64
2008-06-16 08:06:23 51°10.53 2°39.863 4.8 334 13.8 101100 64
2008-06-16 08:06:28 51°10.526 2°39.836 4.6 282 13.8 101100 64
2008-06-16 08:06:33 51°10.521 2°39.809 5.1 334 13.8 101110 64
2008-06-16 08:06:38 51°10.517 2°39.782 4.8 282 13.8 101110 64
2008-06-16 08:06:43 51°10.512 2°39.755 4.3 332 13.8 101100 64
2008-06-16 08:06:48 51°10.507 2°39.729 4.6 279 13.8 101100 64
2008-06-16 08:06:53 51°10.502 2°39.702 4.5 331 13.8 101100 64
2008-06-16 08:06:58 51°10.497 2°39.675 4.1 284 13.8 101100 64
2008-06-16 08:07:03 51°10.492 2°39.649 4.5 332 13.8 101100 63
2008-06-16 08:07:08 51°10.487 2°39.622 4.4 279 13.8 101100 63
2008-06-16 08:07:13 51°10.482 2°39.595 4 333 13.7 101100 63
2008-06-16 08:07:18 51°10.477 2°39.569 4.3 -999 13.7 101100 63
2008-06-16 08:07:23 51°10.472 2°39.542 4.1 332 13.7 101100 63
2008-06-16 08:07:28 51°10.467 2°39.516 4.1 285 13.7 101100 63
2008-06-16 08:07:33 51°10.46 2°39.49 3.9 330 13.7 101100 63
2008-06-16 08:07:38 51°10.452 2°39.465 3.7 285 13.7 101100 63
2008-06-16 08:07:42 51°10.445 2°39.446 3.7 328 13.7 101110 63
2008-06-16 08:07:48 51°10.435 2°39.417 3.8 279 13.7 101110 63
2008-06-16 08:07:53 51°10.427 2°39.393 4.6 332 13.7 101100 63
2008-06-16 08:07:58 51°10.419 2°39.367 4.2 281 13.7 101100 63
2008-06-16 08:08:03 51°10.412 2°39.342 4.6 330 13.7 101100 63
2008-06-16 08:08:08 51°10.405 2°39.316 4.8 278 13.7 101100 63
2008-06-16 08:08:13 51°10.4 2°39.29 4.3 332 13.7 101100 63
2008-06-16 08:08:18 51°10.394 2°39.264 4.2 278 13.7 101100 63
2008-06-16 08:08:22 51°10.389 2°39.242 4.1 333 13.8 101100 63
2008-06-16 08:08:28 51°10.385 2°39.21 4.4 278 13.8 101100 63
2008-06-16 08:08:33 51°10.38 2°39.183 4.2 335 13.7 101100 62
2008-06-16 08:08:38 51°10.376 2°39.155 4 283 13.7 101100 62
2008-06-16 08:08:43 51°10.372 2°39.128 4.3 333 13.7 101100 62
2008-06-16 08:08:48 51°10.369 2°39.101 4.7 278 13.7 101100 62
2008-06-16 08:08:53 51°10.365 2°39.073 4.2 335 13.7 101100 62
2008-06-16 08:08:58 51°10.362 2°39.046 4.3 279 13.7 101100 62
2008-06-16 08:09:03 51°10.358 2°39.018 3.8 333 13.7 101100 62
2008-06-16 08:09:08 51°10.355 2°38.991 4 279 13.7 101100 62
2008-06-16 08:09:13 51°10.351 2°38.964 3.8 335 13.7 101100 62
2008-06-16 08:09:18 51°10.348 2°38.936 3.3 -999 13.7 101100 62
2008-06-16 08:09:23 51°10.344 2°38.908 3.4 334 13.7 101100 62
2008-06-16 08:09:28 51°10.341 2°38.881 3.3 282 13.7 101100 62
2008-06-16 08:09:33 51°10.337 2°38.854 2.2 331 13.7 101100 62
2008-06-16 08:09:38 51°10.333 2°38.826 3.7 276 13.7 101100 62
2008-06-16 08:09:43 51°10.329 2°38.799 4.1 334 13.7 101100 62
2008-06-16 08:09:48 51°10.325 2°38.772 3.9 279 13.7 101100 62
2008-06-16 08:09:53 51°10.32 2°38.745 3.7 336 13.7 101100 62
2008-06-16 08:09:58 51°10.317 2°38.717 3.7 285 13.7 101100 62
2008-06-16 08:10:03 51°10.312 2°38.691 4 332 13.7 101100 62
2008-06-16 08:10:08 51°10.307 2°38.664 4 282 13.7 101100 62
2008-06-16 08:10:13 51°10.304 2°38.636 3.7 329 13.7 101100 62
2008-06-16 08:10:18 51°10.299 2°38.609 3.5 281 13.7 101100 62
2008-06-16 08:10:22 51°10.296 2°38.587 3.4 335 13.7 101100 62
2008-06-16 08:10:28 51°10.291 2°38.555 3.3 276 13.7 101100 62
2008-06-16 08:10:33 51°10.288 2°38.528 3 337 13.7 101100 62
2008-06-16 08:10:38 51°10.283 2°38.501 2.9 284 13.7 101100 62
2008-06-16 08:10:43 51°10.28 2°38.473 3.4 326 13.7 101100 61
2008-06-16 08:10:48 51°10.275 2°38.447 3.8 280 13.7 101100 61
2008-06-16 08:10:53 51°10.271 2°38.42 3.6 328 13.7 101100 61
2008-06-16 08:10:58 51°10.267 2°38.393 3.5 279 13.7 101100 61
2008-06-16 08:11:03 51°10.263 2°38.366 3.4 337 13.7 101100 62
2008-06-16 08:11:08 51°10.259 2°38.339 3.3 282 13.7 101100 62
2008-06-16 08:11:13 51°10.254 2°38.313 3.2 334 13.7 101100 62
2008-06-16 08:11:18 51°10.249 2°38.286 4.3 -999 13.7 101100 62
2008-06-16 08:11:23 51°10.244 2°38.26 3.8 330 13.7 101100 62
2008-06-16 08:11:28 51°10.239 2°38.233 4.3 283 13.7 101100 62
2008-06-16 08:11:33 51°10.234 2°38.207 4 335 13.8 101100 62
2008-06-16 08:11:38 51°10.229 2°38.18 4.4 285 13.8 101100 62
2008-06-16 08:11:43 51°10.224 2°38.154 4.5 333 13.8 101100 63
2008-06-16 08:11:48 51°10.219 2°38.127 4.9 280 13.8 101100 63
2008-06-16 08:11:53 51°10.215 2°38.1 4.6 332 13.8 101100 63
2008-06-16 08:11:58 51°10.209 2°38.074 4.7 285 13.8 101100 63
2008-06-16 08:12:03 51°10.206 2°38.046 4.4 331 13.8 101100 63
2008-06-16 08:12:08 51°10.201 2°38.02 4.1 279 13.8 101100 63
2008-06-16 08:12:13 51°10.197 2°37.993 5.1 329 13.8 101100 63
2008-06-16 08:12:18 51°10.192 2°37.966 4.8 278 13.8 101100 63
2008-06-16 08:12:22 51°10.189 2°37.945 4.5 329 13.8 101100 64
2008-06-16 08:12:28 51°10.183 2°37.913 4.5 280 13.8 101100 64
2008-06-16 08:12:33 51°10.179 2°37.886 4.3 331 13.8 101100 63
2008-06-16 08:12:38 51°10.173 2°37.86 4.2 279 13.8 101100 63
2008-06-16 08:12:43 51°10.169 2°37.833 4 331 13.9 101100 63
2008-06-16 08:12:48 51°10.164 2°37.806 3.9 278 13.9 101100 63
2008-06-16 08:12:53 51°10.158 2°37.78 4.2 333 13.9 101100 63
2008-06-16 08:12:58 51°10.153 2°37.753 4.6 281 13.9 101100 63
2008-06-16 08:13:03 51°10.148 2°37.727 4.9 336 13.9 101100 63
2008-06-16 08:13:08 51°10.143 2°37.7 4.5 282 13.9 101100 63
2008-06-16 08:13:13 51°10.138 2°37.673 4.5 332 13.9 101100 63
2008-06-16 08:13:18 51°10.134 2°37.647 4.7 -999 13.9 101100 63
2008-06-16 08:13:23 51°10.128 2°37.62 3.9 332 13.9 101100 63
2008-06-16 08:13:28 51°10.124 2°37.593 4.4 277 13.9 101100 63
2008-06-16 08:13:33 51°10.118 2°37.567 4.2 332 13.9 101100 64
2008-06-16 08:13:38 51°10.114 2°37.539 4 278 13.9 101100 64
2008-06-16 08:13:43 51°10.109 2°37.513 3.8 336 13.9 101100 63
2008-06-16 08:13:48 51°10.104 2°37.486 3.9 283 13.9 101100 63
2008-06-16 08:13:53 51°10.099 2°37.459 4.2 337 13.9 101100 62
2008-06-16 08:13:58 51°10.095 2°37.432 4.2 284 13.9 101100 62
2008-06-16 08:14:03 51°10.09 2°37.405 4.1 329 13.9 101100 62
2008-06-16 08:14:08 51°10.086 2°37.378 3.9 284 13.9 101100 62
2008-06-16 08:14:13 51°10.082 2°37.351 3.7 336 13.9 101100 62
2008-06-16 08:14:18 51°10.078 2°37.323 3.6 279 13.9 101100 62
2008-06-16 08:14:23 51°10.074 2°37.296 4.2 336 13.9 101100 62
2008-06-16 08:14:28 51°10.07 2°37.269 4.2 279 13.9 101100 62
2008-06-16 08:14:33 51°10.066 2°37.242 3.9 333 13.9 101100 62
2008-06-16 08:14:38 51°10.062 2°37.215 3.8 284 13.9 101100 62
2008-06-16 08:14:43 51°10.058 2°37.187 4.3 336 13.9 101100 62
2008-06-16 08:14:48 51°10.054 2°37.16 3.6 278 13.9 101100 62
2008-06-16 08:14:53 51°10.05 2°37.133 3.9 335 13.9 101100 62
2008-06-16 08:14:58 51°10.046 2°37.106 3.3 283 13.9 101100 62
2008-06-16 08:15:03 51°10.042 2°37.078 3.5 334 13.9 101090 62
2008-06-16 08:15:08 51°10.038 2°37.051 4.2 277 13.9 101090 62
2008-06-16 08:15:13 51°10.034 2°37.024 4.5 336 13.9 101100 62
2008-06-16 08:15:18 51°10.03 2°36.997 4.4 -999 13.9 101100 62
2008-06-16 08:15:23 51°10.026 2°36.969 4.6 329 13.9 101100 62
2008-06-16 08:15:28 51°10.021 2°36.943 4.3 278 13.9 101100 62
2008-06-16 08:15:33 51°10.016 2°36.916 4.1 325 13.9 101090 63
2008-06-16 08:15:38 51°10.012 2°36.889 3.9 278 13.9 101090 63
2008-06-16 08:15:43 51°10.007 2°36.862 4.2 329 13.9 101090 63
2008-06-16 08:15:48 51°10.002 2°36.836 4.6 280 13.9 101090 63
2008-06-16 08:15:53 51°9.997 2°36.809 5.1 336 13.9 101090 63
2008-06-16 08:15:58 51°9.992 2°36.782 5.3 285 13.9 101090 63
2008-06-16 08:16:03 51°9.987 2°36.755 4.6 329 13.9 101100 63
2008-06-16 08:16:08 51°9.982 2°36.729 5.2 278 13.9 101100 63
2008-06-16 08:16:13 51°9.978 2°36.702 5.1 334 13.9 101100 64
2008-06-16 08:16:18 51°9.973 2°36.676 5.3 283 13.9 101100 64
2008-06-16 08:16:23 51°9.968 2°36.649 5.2 337 13.9 101090 64
2008-06-16 08:16:28 51°9.963 2°36.622 5.1 285 13.9 101090 64
2008-06-16 08:16:33 51°9.958 2°36.596 5.1 337 13.9 101100 64
2008-06-16 08:16:38 51°9.954 2°36.569 4.8 284 13.9 101100 64
2008-06-16 08:16:43 51°9.949 2°36.542 4.8 333 13.9 101090 64
2008-06-16 08:16:48 51°9.945 2°36.516 5.4 276 13.9 101090 64
2008-06-16 08:16:53 51°9.939 2°36.489 4.9 334 13.9 101090 64
2008-06-16 08:16:58 51°9.936 2°36.462 4.2 281 13.9 101090 64
2008-06-16 08:17:03 51°9.93 2°36.435 4.8 331 13.9 101090 64
2008-06-16 08:17:08 51°9.926 2°36.408 5.1 279 13.9 101090 64
2008-06-16 08:17:13 51°9.921 2°36.382 4.4 329 13.9 101100 64
2008-06-16 08:17:18 51°9.917 2°36.355 4.4 -999 13.9 101100 64
2008-06-16 08:17:22 51°9.913 2°36.334 4.6 329 13.9 101100 64
2008-06-16 08:17:28 51°9.908 2°36.302 5 280 13.9 101100 64
2008-06-16 08:17:33 51°9.904 2°36.275 4.3 330 13.9 101090 64
2008-06-16 08:17:38 51°9.899 2°36.248 5.4 278 13.9 101090 64
2008-06-16 08:17:43 51°9.895 2°36.221 4.4 331 13.8 101090 64
2008-06-16 08:17:48 51°9.891 2°36.194 5.3 282 13.8 101090 64
2008-06-16 08:17:53 51°9.887 2°36.167 4.8 332 13.8 101100 64
2008-06-16 08:17:58 51°9.882 2°36.141 4.7 281 13.8 101100 64
2008-06-16 08:18:03 51°9.878 2°36.113 4.5 330 13.8 101100 64
2008-06-16 08:18:08 51°9.874 2°36.086 4.9 277 13.8 101100 64
2008-06-16 08:18:13 51°9.87 2°36.06 4.7 333 13.9 101090 64
2008-06-16 08:18:18 51°9.866 2°36.033 4.7 283 13.9 101090 64
2008-06-16 08:18:23 51°9.861 2°36.006 4.3 333 13.8 101090 64
2008-06-16 08:18:28 51°9.857 2°35.979 4.1 279 13.8 101090 64
2008-06-16 08:18:33 51°9.852 2°35.953 4.3 332 13.8 101100 64
2008-06-16 08:18:38 51°9.847 2°35.926 4.2 282 13.8 101100 64
2008-06-16 08:18:43 51°9.842 2°35.9 4 331 13.8 101100 64
2008-06-16 08:18:48 51°9.838 2°35.873 4 278 13.8 101100 64
2008-06-16 08:18:53 51°9.833 2°35.846 4.4 334 13.8 101100 64
2008-06-16 08:18:58 51°9.829 2°35.819 4.1 280 13.8 101100 64
2008-06-16 08:19:03 51°9.825 2°35.792 4.7 333 13.8 101100 64
2008-06-16 08:19:08 51°9.821 2°35.765 4.9 279 13.8 101100 64
2008-06-16 08:19:13 51°9.817 2°35.738 4.7 331 13.8 101100 64
2008-06-16 08:19:18 51°9.813 2°35.711 4.7 -999 13.8 101100 64
2008-06-16 08:19:22 51°9.81 2°35.69 5 334 13.8 101100 64
2008-06-16 08:19:28 51°9.806 2°35.657 5.4 285 13.8 101100 64
2008-06-16 08:19:33 51°9.802 2°35.63 5.1 331 13.8 101100 64
2008-06-16 08:19:38 51°9.798 2°35.603 4.8 285 13.8 101100 64
2008-06-16 08:19:43 51°9.795 2°35.576 5.1 334 13.9 101100 64
2008-06-16 08:19:48 51°9.791 2°35.549 5 278 13.9 101100 64
2008-06-16 08:19:53 51°9.787 2°35.522 5.2 332 13.9 101090 64
2008-06-16 08:19:58 51°9.783 2°35.495 5.1 284 13.9 101090 64
2008-06-16 08:20:03 51°9.779 2°35.468 4.9 332 13.9 101090 64
2008-06-16 08:20:08 51°9.774 2°35.442 5.4 284 13.9 101090 64
2008-06-16 08:20:13 51°9.769 2°35.415 5.1 332 13.9 101090 65
2008-06-16 08:20:18 51°9.765 2°35.388 4.2 286 13.9 101090 65
2008-06-16 08:20:23 51°9.76 2°35.362 4.6 329 13.9 101090 65
2008-06-16 08:20:28 51°9.755 2°35.335 4.2 278 13.9 101090 65
2008-06-16 08:20:33 51°9.751 2°35.309 5 327 13.9 101090 65
2008-06-16 08:20:38 51°9.745 2°35.283 4.8 284 13.9 101090 65
2008-06-16 08:20:43 51°9.741 2°35.256 4.8 332 13.9 101100 64
2008-06-16 08:20:48 51°9.736 2°35.23 4.4 286 13.9 101100 64
2008-06-16 08:20:53 51°9.732 2°35.203 4.5 329 13.9 101100 64
2008-06-16 08:20:58 51°9.728 2°35.176 5 280 13.9 101100 64
2008-06-16 08:21:03 51°9.724 2°35.149 4.3 328 13.9 101100 65
2008-06-16 08:21:08 51°9.721 2°35.122 4.9 279 13.9 101100 65
2008-06-16 08:21:13 51°9.718 2°35.095 4.6 327 13.9 101090 65
2008-06-16 08:21:18 51°9.714 2°35.068 4.8 -999 13.9 101090 65
2008-06-16 08:21:22 51°9.711 2°35.047 4.1 329 13.9 101100 65
2008-06-16 08:21:28 51°9.706 2°35.014 4.5 283 13.9 101100 65
2008-06-16 08:21:33 51°9.703 2°34.987 4.8 328 13.9 101100 64
2008-06-16 08:21:38 51°9.699 2°34.961 4.4 285 13.9 101100 64
2008-06-16 08:21:43 51°9.696 2°34.934 4.7 329 13.9 101100 64
2008-06-16 08:21:47 51°9.693 2°34.912 4 279 13.9 101100 64
2008-06-16 08:21:53 51°9.687 2°34.881 4.9 328 13.9 101100 64
2008-06-16 08:21:58 51°9.684 2°34.853 4 283 13.9 101100 64
2008-06-16 08:22:03 51°9.68 2°34.827 4 326 13.9 101100 64
2008-06-16 08:22:08 51°9.676 2°34.8 3.9 277 13.9 101100 64
2008-06-16 08:22:13 51°9.672 2°34.773 3.7 326 13.9 101100 64
2008-06-16 08:22:18 51°9.668 2°34.746 3.9 284 13.9 101100 64
2008-06-16 08:22:23 51°9.664 2°34.719 4.1 330 13.8 101100 63
2008-06-16 08:22:28 51°9.661 2°34.693 4.1 286 13.8 101100 63
2008-06-16 08:22:33 51°9.657 2°34.666 4 330 13.9 101100 63
2008-06-16 08:22:38 51°9.653 2°34.639 4.4 277 13.9 101100 63
2008-06-16 08:22:43 51°9.649 2°34.612 4 332 13.9 101100 64
2008-06-16 08:22:48 51°9.645 2°34.586 4 285 13.9 101100 64
2008-06-16 08:22:53 51°9.641 2°34.559 4.4 330 13.8 101110 64
2008-06-16 08:22:58 51°9.636 2°34.533 4.7 283 13.8 101110 64
2008-06-16 08:23:03 51°9.631 2°34.507 4.2 333 13.9 101100 64
2008-06-16 08:23:08 51°9.626 2°34.481 5.1 284 13.9 101100 64
2008-06-16 08:23:13 51°9.621 2°34.455 4.6 335 13.9 101100 64
2008-06-16 08:23:18 51°9.616 2°34.429 4.9 -999 13.9 101100 64
2008-06-16 08:23:23 51°9.61 2°34.403 4.9 336 13.9 101100 65
2008-06-16 08:23:28 51°9.605 2°34.377 5.1 284 13.9 101100 65
2008-06-16 08:23:33 51°9.6 2°34.351 4.5 338 13.9 101100 64
2008-06-16 08:23:38 51°9.595 2°34.325 4.6 278 13.9 101100 64
2008-06-16 08:23:43 51°9.59 2°34.299 4.4 341 13.9 101110 64
2008-06-16 08:23:48 51°9.585 2°34.273 4.3 283 13.9 101110 64
2008-06-16 08:23:53 51°9.581 2°34.247 4.3 341 13.9 101110 64
2008-06-16 08:23:58 51°9.576 2°34.221 4 279 13.9 101110 64
2008-06-16 08:24:02 51°9.572 2°34.2 3.4 339 13.9 101100 64
2008-06-16 08:24:08 51°9.568 2°34.172 3.2 283 13.9 101100 64
2008-06-16 08:24:13 51°9.564 2°34.15 3 347 13.9 101100 63
2008-06-16 08:24:18 51°9.561 2°34.13 2.6 278 13.9 101100 63
2008-06-16 08:24:23 51°9.557 2°34.111 2.7 342 13.9 101100 63
2008-06-16 08:24:28 51°9.554 2°34.093 2.2 276 13.9 101100 63
2008-06-16 08:24:33 51°9.551 2°34.075 1.9 350 13.9 101110 64
2008-06-16 08:24:38 51°9.548 2°34.06 1.5 346 13.9 101110 64
2008-06-16 08:24:43 51°9.545 2°34.046 1.6 358 13.9 101110 64
2008-06-16 08:24:48 51°9.541 2°34.034 1.2 354 13.9 101110 64
2008-06-16 08:24:53 51°9.537 2°34.022 0.9 5 13.9 101110 64
2008-06-16 08:24:58 51°9.534 2°34.012 0.7 44 13.9 101110 64
2008-06-16 08:25:03 51°9.53 2°34.002 0.5 268 13.9 101110 65
2008-06-16 08:25:08 51°9.526 2°33.994 0.6 76 13.9 101110 65
2008-06-16 08:25:13 51°9.522 2°33.986 0.6 29 13.9 101110 66
2008-06-16 08:25:18 51°9.518 2°33.978 0.5 283 13.9 101110 66
2008-06-16 08:25:23 51°9.513 2°33.972 2 21 14 101110 66
2008-06-16 08:25:28 51°9.508 2°33.967 2.3 279 14 101110 66
2008-06-16 08:25:33 51°9.503 2°33.962 2.6 251 14 101110 66
2008-06-16 08:25:38 51°9.498 2°33.959 2.2 279 14 101110 66
2008-06-16 08:25:43 51°9.494 2°33.957 2.4 20 14.1 101110 67
2008-06-16 08:25:48 51°9.49 2°33.954 2.6 280 14.1 101110 67
2008-06-16 08:25:53 51°9.486 2°33.953 2.4 245 14.1 101100 67
2008-06-16 08:25:58 51°9.482 2°33.95 3.5 284 14.1 101100 67
2008-06-16 08:26:02 51°9.479 2°33.95 2.2 261 14.2 101110 66
2008-06-16 08:26:08 51°9.475 2°33.948 3.7 285 14.2 101110 66
2008-06-16 08:26:13 51°9.472 2°33.948 3.2 261 14.2 101100 66
2008-06-16 08:26:18 51°9.47 2°33.948 2.1 280 14.2 101100 66
2008-06-16 08:26:23 51°9.468 2°33.947 2.4 253 14.2 101100 66
2008-06-16 08:26:28 51°9.467 2°33.947 3.1 278 14.2 101100 66
2008-06-16 08:26:33 51°9.465 2°33.947 2.5 267 14.3 101110 66
2008-06-16 08:26:38 51°9.465 2°33.946 2.1 280 14.3 101110 66
2008-06-16 08:26:43 51°9.465 2°33.946 2.6 267 14.3 101110 66
2008-06-16 08:26:48 51°9.464 2°33.945 2.7 285 14.3 101110 66
2008-06-16 08:26:53 51°9.464 2°33.945 3 268 14.4 101110 66
2008-06-16 08:26:58 51°9.463 2°33.944 2 280 14.4 101110 66
2008-06-16 08:27:03 51°9.463 2°33.944 1.9 266 14.4 101100 66
2008-06-16 08:27:08 51°9.463 2°33.944 2.4 286 14.4 101100 66
2008-06-16 08:27:13 51°9.462 2°33.943 1.4 262 14.5 101100 66
2008-06-16 08:27:18 51°9.462 2°33.942 2 -999 14.5 101100 66
2008-06-16 08:27:23 51°9.462 2°33.942 2.2 264 14.5 101110 65
2008-06-16 08:27:28 51°9.462 2°33.941 1.7 281 14.5 101110 65
2008-06-16 08:27:33 51°9.462 2°33.941 2.2 267 14.5 101110 64
2008-06-16 08:27:38 51°9.461 2°33.941 1.6 275 14.5 101110 64
2008-06-16 08:27:43 51°9.461 2°33.94 1.4 266 14.5 101110 64
2008-06-16 08:27:48 51°9.461 2°33.939 2.2 281 14.5 101110 64
2008-06-16 08:27:53 51°9.461 2°33.939 1.8 263 14.5 101100 63
2008-06-16 08:27:58 51°9.461 2°33.939 1.8 286 14.5 101100 63
2008-06-16 08:28:03 51°9.46 2°33.938 1.8 265 14.5 101110 63
2008-06-16 08:28:08 51°9.46 2°33.938 1.7 276 14.5 101110 63
2008-06-16 08:28:13 51°9.46 2°33.938 1.3 263 14.6 101110 63
2008-06-16 08:28:18 51°9.46 2°33.937 1.6 282 14.6 101110 63
2008-06-16 08:28:23 51°9.46 2°33.937 1.5 261 14.6 101110 63
2008-06-16 08:28:28 51°9.46 2°33.936 1.9 286 14.6 101110 63
2008-06-16 08:28:33 51°9.46 2°33.936 2.4 252 14.6 101100 63
2008-06-16 08:28:38 51°9.459 2°33.935 2.4 285 14.6 101100 63
2008-06-16 08:28:43 51°9.459 2°33.935 1.5 265 14.6 101110 63
2008-06-16 08:28:48 51°9.459 2°33.935 1.9 279 14.6 101110 63
2008-06-16 08:28:53 51°9.459 2°33.934 2.2 262 14.7 101110 63
2008-06-16 08:28:58 51°9.459 2°33.934 1.7 281 14.7 101110 63
2008-06-16 08:29:03 51°9.459 2°33.933 1.6 263 14.7 101100 63
2008-06-16 08:29:08 51°9.459 2°33.933 1.6 281 14.7 101100 63